sensor_id;sensor_type;location;lat;lon;timestamp;temperature;humidity
24456;DHT22;12628;50.860;5.714;2022-10-16T00:01:46;14.60;99.90
24456;DHT22;12628;50.860;5.714;2022-10-16T00:04:12;14.60;99.90
24456;DHT22;12628;50.860;5.714;2022-10-16T00:06:39;14.50;99.90
24456;DHT22;12628;50.860;5.714;2022-10-16T00:09:08;14.40;99.90
24456;DHT22;12628;50.860;5.714;2022-10-16T00:11:36;14.50;99.90
24456;DHT22;12628;50.860;5.714;2022-10-16T00:14:04;14.60;99.90
24456;DHT22;12628;50.860;5.714;2022-10-16T00:16:31;14.60;99.90
24456;DHT22;12628;50.860;5.714;2022-10-16T00:18:58;14.50;99.90
24456;DHT22;12628;50.860;5.714;2022-10-16T00:21:26;14.50;99.90
24456;DHT22;12628;50.860;5.714;2022-10-16T00:23:54;14.50;99.90
24456;DHT22;12628;50.860;5.714;2022-10-16T00:26:22;14.50;99.90
24456;DHT22;12628;50.860;5.714;2022-10-16T00:28:50;14.40;99.90
24456;DHT22;12628;50.860;5.714;2022-10-16T00:31:17;14.40;99.90
24456;DHT22;12628;50.860;5.714;2022-10-16T00:33:44;14.30;99.90
24456;DHT22;12628;50.860;5.714;2022-10-16T00:36:12;14.20;99.90
24456;DHT22;12628;50.860;5.714;2022-10-16T00:38:39;14.30;99.90
24456;DHT22;12628;50.860;5.714;2022-10-16T00:41:07;14.40;99.90
24456;DHT22;12628;50.860;5.714;2022-10-16T00:43:39;14.20;99.90
24456;DHT22;12628;50.860;5.714;2022-10-16T00:46:09;14.20;99.90
24456;DHT22;12628;50.860;5.714;2022-10-16T00:48:46;14.20;99.90
24456;DHT22;12628;50.860;5.714;2022-10-16T00:51:15;14.20;99.90
24456;DHT22;12628;50.860;5.714;2022-10-16T00:53:43;14.10;99.90
24456;DHT22;12628;50.860;5.714;2022-10-16T00:56:11;14.10;99.90
24456;DHT22;12628;50.860;5.714;2022-10-16T00:58:37;14.10;99.90
24456;DHT22;12628;50.860;5.714;2022-10-16T01:01:04;14.00;99.90
24456;DHT22;12628;50.860;5.714;2022-10-16T01:03:32;14.00;99.90
24456;DHT22;12628;50.860;5.714;2022-10-16T01:06:05;14.00;99.90
24456;DHT22;12628;50.860;5.714;2022-10-16T01:08:39;14.10;99.90
24456;DHT22;12628;50.860;5.714;2022-10-16T01:11:11;14.20;99.90
24456;DHT22;12628;50.860;5.714;2022-10-16T01:13:44;14.00;99.90
24456;DHT22;12628;50.860;5.714;2022-10-16T01:16:13;14.00;99.90
24456;DHT22;12628;50.860;5.714;2022-10-16T01:18:43;14.00;99.90
24456;DHT22;12628;50.860;5.714;2022-10-16T01:21:12;14.00;99.90
24456;DHT22;12628;50.860;5.714;2022-10-16T01:23:43;14.10;99.90
24456;DHT22;12628;50.860;5.714;2022-10-16T01:26:20;14.00;99.90
24456;DHT22;12628;50.860;5.714;2022-10-16T01:28:53;14.00;99.90
24456;DHT22;12628;50.860;5.714;2022-10-16T01:31:23;13.90;99.90
24456;DHT22;12628;50.860;5.714;2022-10-16T01:33:53;13.90;99.90
24456;DHT22;12628;50.860;5.714;2022-10-16T01:36:23;14.00;99.90
24456;DHT22;12628;50.860;5.714;2022-10-16T01:38:52;14.00;99.90
24456;DHT22;12628;50.860;5.714;2022-10-16T01:41:22;13.90;99.90
24456;DHT22;12628;50.860;5.714;2022-10-16T01:43:53;14.00;99.90
24456;DHT22;12628;50.860;5.714;2022-10-16T01:46:23;14.10;99.90
24456;DHT22;12628;50.860;5.714;2022-10-16T01:48:50;14.10;99.90
24456;DHT22;12628;50.860;5.714;2022-10-16T01:51:19;14.10;99.90
24456;DHT22;12628;50.860;5.714;2022-10-16T01:53:48;14.10;99.90
24456;DHT22;12628;50.860;5.714;2022-10-16T01:56:16;14.10;99.90
24456;DHT22;12628;50.860;5.714;2022-10-16T01:58:46;14.10;99.90
24456;DHT22;12628;50.860;5.714;2022-10-16T02:01:15;14.10;99.90
24456;DHT22;12628;50.860;5.714;2022-10-16T02:03:44;14.10;99.90
24456;DHT22;12628;50.860;5.714;2022-10-16T02:06:12;14.00;99.90
24456;DHT22;12628;50.860;5.714;2022-10-16T02:08:39;14.00;99.90
24456;DHT22;12628;50.860;5.714;2022-10-16T02:11:09;14.10;99.90
24456;DHT22;12628;50.860;5.714;2022-10-16T02:13:37;14.20;99.90
24456;DHT22;12628;50.860;5.714;2022-10-16T02:16:05;14.20;99.90
24456;DHT22;12628;50.860;5.714;2022-10-16T02:18:34;14.20;99.90
24456;DHT22;12628;50.860;5.714;2022-10-16T02:21:02;14.20;99.90
24456;DHT22;12628;50.860;5.714;2022-10-16T02:23:35;14.20;99.90
24456;DHT22;12628;50.860;5.714;2022-10-16T02:26:03;14.00;99.90
24456;DHT22;12628;50.860;5.714;2022-10-16T02:28:33;13.90;99.90
24456;DHT22;12628;50.860;5.714;2022-10-16T02:31:03;13.90;99.90
24456;DHT22;12628;50.860;5.714;2022-10-16T02:33:31;13.80;99.90
24456;DHT22;12628;50.860;5.714;2022-10-16T02:36:00;13.90;99.90
24456;DHT22;12628;50.860;5.714;2022-10-16T02:38:27;13.80;99.90
24456;DHT22;12628;50.860;5.714;2022-10-16T02:40:55;13.80;99.90
24456;DHT22;12628;50.860;5.714;2022-10-16T02:43:22;13.80;99.90
24456;DHT22;12628;50.860;5.714;2022-10-16T02:45:51;13.80;99.90
24456;DHT22;12628;50.860;5.714;2022-10-16T02:48:18;13.90;99.90
24456;DHT22;12628;50.860;5.714;2022-10-16T02:50:45;13.90;99.90
24456;DHT22;12628;50.860;5.714;2022-10-16T02:53:13;13.90;99.90
24456;DHT22;12628;50.860;5.714;2022-10-16T02:55:40;13.80;99.90
24456;DHT22;12628;50.860;5.714;2022-10-16T02:58:07;13.70;99.90
24456;DHT22;12628;50.860;5.714;2022-10-16T03:00:34;13.70;99.90
24456;DHT22;12628;50.860;5.714;2022-10-16T03:03:01;13.70;99.90
24456;DHT22;12628;50.860;5.714;2022-10-16T03:05:28;13.70;99.90
24456;DHT22;12628;50.860;5.714;2022-10-16T03:07:55;13.80;99.90
24456;DHT22;12628;50.860;5.714;2022-10-16T03:10:23;13.80;99.90
24456;DHT22;12628;50.860;5.714;2022-10-16T03:12:50;13.90;99.90
24456;DHT22;12628;50.860;5.714;2022-10-16T03:15:17;13.80;99.90
24456;DHT22;12628;50.860;5.714;2022-10-16T03:17:44;13.90;99.90
24456;DHT22;12628;50.860;5.714;2022-10-16T03:20:11;13.80;99.90
24456;DHT22;12628;50.860;5.714;2022-10-16T03:22:38;13.80;99.90
24456;DHT22;12628;50.860;5.714;2022-10-16T03:25:06;13.70;99.90
24456;DHT22;12628;50.860;5.714;2022-10-16T03:27:34;13.60;99.90
24456;DHT22;12628;50.860;5.714;2022-10-16T03:30:01;13.60;99.90
24456;DHT22;12628;50.860;5.714;2022-10-16T03:32:28;13.60;99.90
24456;DHT22;12628;50.860;5.714;2022-10-16T03:34:55;13.50;99.90
24456;DHT22;12628;50.860;5.714;2022-10-16T03:37:22;13.60;99.90
24456;DHT22;12628;50.860;5.714;2022-10-16T03:39:49;13.60;99.90
24456;DHT22;12628;50.860;5.714;2022-10-16T03:42:17;13.60;99.90
24456;DHT22;12628;50.860;5.714;2022-10-16T03:44:45;13.70;99.90
24456;DHT22;12628;50.860;5.714;2022-10-16T03:47:12;13.70;99.90
24456;DHT22;12628;50.860;5.714;2022-10-16T03:49:39;13.70;99.90
24456;DHT22;12628;50.860;5.714;2022-10-16T03:52:06;13.60;99.90
24456;DHT22;12628;50.860;5.714;2022-10-16T03:54:33;13.60;99.90
24456;DHT22;12628;50.860;5.714;2022-10-16T03:56:59;13.70;99.90
24456;DHT22;12628;50.860;5.714;2022-10-16T03:59:26;13.60;99.90
24456;DHT22;12628;50.860;5.714;2022-10-16T04:01:55;13.60;99.90
24456;DHT22;12628;50.860;5.714;2022-10-16T04:04:22;13.50;99.90
24456;DHT22;12628;50.860;5.714;2022-10-16T04:06:50;13.40;99.90
24456;DHT22;12628;50.860;5.714;2022-10-16T04:09:17;13.30;99.90
24456;DHT22;12628;50.860;5.714;2022-10-16T04:11:44;13.40;99.90
24456;DHT22;12628;50.860;5.714;2022-10-16T04:14:11;13.50;99.90
24456;DHT22;12628;50.860;5.714;2022-10-16T04:16:38;13.50;99.90
24456;DHT22;12628;50.860;5.714;2022-10-16T04:19:06;13.40;99.90
24456;DHT22;12628;50.860;5.714;2022-10-16T04:21:33;13.60;99.90
24456;DHT22;12628;50.860;5.714;2022-10-16T04:24:00;13.70;99.90
24456;DHT22;12628;50.860;5.714;2022-10-16T04:26:27;13.60;99.90
24456;DHT22;12628;50.860;5.714;2022-10-16T04:28:54;13.60;99.90
24456;DHT22;12628;50.860;5.714;2022-10-16T04:31:21;13.70;99.90
24456;DHT22;12628;50.860;5.714;2022-10-16T04:33:48;13.60;99.90
24456;DHT22;12628;50.860;5.714;2022-10-16T04:36:16;13.50;99.90
24456;DHT22;12628;50.860;5.714;2022-10-16T04:38:43;13.60;99.90
24456;DHT22;12628;50.860;5.714;2022-10-16T04:41:10;13.60;99.90
24456;DHT22;12628;50.860;5.714;2022-10-16T04:43:37;13.60;99.90
24456;DHT22;12628;50.860;5.714;2022-10-16T04:46:04;13.60;99.90
24456;DHT22;12628;50.860;5.714;2022-10-16T04:48:31;13.50;99.90
24456;DHT22;12628;50.860;5.714;2022-10-16T04:50:58;13.50;99.90
24456;DHT22;12628;50.860;5.714;2022-10-16T04:53:27;13.50;99.90
24456;DHT22;12628;50.860;5.714;2022-10-16T04:55:53;13.50;99.90
24456;DHT22;12628;50.860;5.714;2022-10-16T04:58:21;13.50;99.90
24456;DHT22;12628;50.860;5.714;2022-10-16T05:00:48;13.60;99.90
24456;DHT22;12628;50.860;5.714;2022-10-16T05:03:15;13.60;99.90
24456;DHT22;12628;50.860;5.714;2022-10-16T05:05:42;13.60;99.90
24456;DHT22;12628;50.860;5.714;2022-10-16T05:08:09;13.50;99.90
24456;DHT22;12628;50.860;5.714;2022-10-16T05:10:37;13.50;99.90
24456;DHT22;12628;50.860;5.714;2022-10-16T05:13:04;13.60;99.90
24456;DHT22;12628;50.860;5.714;2022-10-16T05:15:32;13.60;99.90
24456;DHT22;12628;50.860;5.714;2022-10-16T05:17:58;13.60;99.90
24456;DHT22;12628;50.860;5.714;2022-10-16T05:20:25;13.60;99.90
24456;DHT22;12628;50.860;5.714;2022-10-16T05:22:52;13.60;99.90
24456;DHT22;12628;50.860;5.714;2022-10-16T05:25:19;13.60;99.90
24456;DHT22;12628;50.860;5.714;2022-10-16T05:27:48;13.70;99.90
24456;DHT22;12628;50.860;5.714;2022-10-16T05:30:15;13.60;99.90
24456;DHT22;12628;50.860;5.714;2022-10-16T05:32:45;13.70;99.90
24456;DHT22;12628;50.860;5.714;2022-10-16T05:35:12;13.60;99.90
24456;DHT22;12628;50.860;5.714;2022-10-16T05:37:39;13.60;99.90
24456;DHT22;12628;50.860;5.714;2022-10-16T05:40:07;13.60;99.90
24456;DHT22;12628;50.860;5.714;2022-10-16T05:42:34;13.60;99.90
24456;DHT22;12628;50.860;5.714;2022-10-16T05:45:06;13.60;99.90
24456;DHT22;12628;50.860;5.714;2022-10-16T05:47:33;13.60;99.90
24456;DHT22;12628;50.860;5.714;2022-10-16T05:50:00;13.50;99.90
24456;DHT22;12628;50.860;5.714;2022-10-16T05:52:27;13.60;99.90
24456;DHT22;12628;50.860;5.714;2022-10-16T05:54:54;13.60;99.90
24456;DHT22;12628;50.860;5.714;2022-10-16T05:57:21;13.70;99.90
24456;DHT22;12628;50.860;5.714;2022-10-16T05:59:48;13.60;99.90
24456;DHT22;12628;50.860;5.714;2022-10-16T06:02:16;13.70;99.90
24456;DHT22;12628;50.860;5.714;2022-10-16T06:04:43;13.60;99.90
24456;DHT22;12628;50.860;5.714;2022-10-16T06:07:10;13.60;99.90
24456;DHT22;12628;50.860;5.714;2022-10-16T06:09:37;13.50;99.90
24456;DHT22;12628;50.860;5.714;2022-10-16T06:12:04;13.50;99.90
24456;DHT22;12628;50.860;5.714;2022-10-16T06:14:31;13.50;99.90
24456;DHT22;12628;50.860;5.714;2022-10-16T06:16:58;13.50;99.90
24456;DHT22;12628;50.860;5.714;2022-10-16T06:19:26;13.40;99.90
24456;DHT22;12628;50.860;5.714;2022-10-16T06:21:53;13.40;99.90
24456;DHT22;12628;50.860;5.714;2022-10-16T06:24:20;13.40;99.90
24456;DHT22;12628;50.860;5.714;2022-10-16T06:26:47;13.40;99.90
24456;DHT22;12628;50.860;5.714;2022-10-16T06:29:14;13.50;99.90
24456;DHT22;12628;50.860;5.714;2022-10-16T06:31:41;13.50;99.90
24456;DHT22;12628;50.860;5.714;2022-10-16T06:34:08;13.50;99.90
24456;DHT22;12628;50.860;5.714;2022-10-16T06:36:37;13.50;99.90
24456;DHT22;12628;50.860;5.714;2022-10-16T06:39:05;13.50;99.90
24456;DHT22;12628;50.860;5.714;2022-10-16T06:41:32;13.50;99.90
24456;DHT22;12628;50.860;5.714;2022-10-16T06:43:59;13.50;99.90
24456;DHT22;12628;50.860;5.714;2022-10-16T06:46:26;13.50;99.90
24456;DHT22;12628;50.860;5.714;2022-10-16T06:48:53;13.50;99.90
24456;DHT22;12628;50.860;5.714;2022-10-16T06:51:21;13.50;99.90
24456;DHT22;12628;50.860;5.714;2022-10-16T06:53:50;13.50;99.90
24456;DHT22;12628;50.860;5.714;2022-10-16T06:56:18;13.40;99.90
24456;DHT22;12628;50.860;5.714;2022-10-16T06:58:46;13.70;99.90
24456;DHT22;12628;50.860;5.714;2022-10-16T07:01:13;14.10;99.90
24456;DHT22;12628;50.860;5.714;2022-10-16T07:03:41;14.20;99.90
24456;DHT22;12628;50.860;5.714;2022-10-16T07:06:09;14.50;99.90
24456;DHT22;12628;50.860;5.714;2022-10-16T07:08:37;14.20;99.90
24456;DHT22;12628;50.860;5.714;2022-10-16T07:11:06;14.00;99.90
24456;DHT22;12628;50.860;5.714;2022-10-16T07:13:33;14.60;99.90
24456;DHT22;12628;50.860;5.714;2022-10-16T07:16:03;15.80;99.90
24456;DHT22;12628;50.860;5.714;2022-10-16T07:18:31;16.70;99.90
24456;DHT22;12628;50.860;5.714;2022-10-16T07:21:02;17.10;99.90
24456;DHT22;12628;50.860;5.714;2022-10-16T07:23:29;17.70;99.90
24456;DHT22;12628;50.860;5.714;2022-10-16T07:25:56;17.80;99.90
24456;DHT22;12628;50.860;5.714;2022-10-16T07:28:25;18.30;99.90
24456;DHT22;12628;50.860;5.714;2022-10-16T07:30:52;18.00;99.90
24456;DHT22;12628;50.860;5.714;2022-10-16T07:33:19;18.20;99.90
24456;DHT22;12628;50.860;5.714;2022-10-16T07:35:49;18.50;99.90
24456;DHT22;12628;50.860;5.714;2022-10-16T07:38:16;18.50;99.90
24456;DHT22;12628;50.860;5.714;2022-10-16T07:40:43;18.50;99.90
24456;DHT22;12628;50.860;5.714;2022-10-16T07:43:10;18.90;99.90
24456;DHT22;12628;50.860;5.714;2022-10-16T07:45:40;18.90;99.90
24456;DHT22;12628;50.860;5.714;2022-10-16T07:48:12;19.20;99.90
24456;DHT22;12628;50.860;5.714;2022-10-16T07:50:40;19.00;99.90
24456;DHT22;12628;50.860;5.714;2022-10-16T07:53:07;19.20;99.90
24456;DHT22;12628;50.860;5.714;2022-10-16T07:55:34;19.40;99.90
24456;DHT22;12628;50.860;5.714;2022-10-16T07:58:01;19.50;99.90
24456;DHT22;12628;50.860;5.714;2022-10-16T08:00:28;19.30;99.90
24456;DHT22;12628;50.860;5.714;2022-10-16T08:02:57;19.50;99.90
24456;DHT22;12628;50.860;5.714;2022-10-16T08:05:25;19.30;99.90
24456;DHT22;12628;50.860;5.714;2022-10-16T08:07:53;19.70;99.90
24456;DHT22;12628;50.860;5.714;2022-10-16T08:10:20;20.20;99.90
24456;DHT22;12628;50.860;5.714;2022-10-16T08:12:47;20.10;99.90
24456;DHT22;12628;50.860;5.714;2022-10-16T08:15:14;20.40;99.90
24456;DHT22;12628;50.860;5.714;2022-10-16T08:17:41;20.30;99.90
24456;DHT22;12628;50.860;5.714;2022-10-16T08:20:10;20.20;99.90
24456;DHT22;12628;50.860;5.714;2022-10-16T08:22:37;20.50;99.90
24456;DHT22;12628;50.860;5.714;2022-10-16T08:25:05;20.30;99.90
24456;DHT22;12628;50.860;5.714;2022-10-16T08:27:32;20.40;99.90
24456;DHT22;12628;50.860;5.714;2022-10-16T08:29:59;20.80;99.90
24456;DHT22;12628;50.860;5.714;2022-10-16T08:32:26;20.40;99.90
24456;DHT22;12628;50.860;5.714;2022-10-16T08:34:53;20.70;99.90
24456;DHT22;12628;50.860;5.714;2022-10-16T08:37:21;20.70;99.90
24456;DHT22;12628;50.860;5.714;2022-10-16T08:39:48;21.10;99.90
24456;DHT22;12628;50.860;5.714;2022-10-16T08:42:18;21.20;99.90
24456;DHT22;12628;50.860;5.714;2022-10-16T08:44:56;21.30;99.90
24456;DHT22;12628;50.860;5.714;2022-10-16T08:47:26;21.60;99.90
24456;DHT22;12628;50.860;5.714;2022-10-16T08:49:58;21.90;99.90
24456;DHT22;12628;50.860;5.714;2022-10-16T08:52:28;21.80;99.90
24456;DHT22;12628;50.860;5.714;2022-10-16T08:54:55;21.60;99.90
24456;DHT22;12628;50.860;5.714;2022-10-16T08:57:24;21.70;99.90
24456;DHT22;12628;50.860;5.714;2022-10-16T08:59:51;22.10;99.90
24456;DHT22;12628;50.860;5.714;2022-10-16T09:02:23;21.00;99.90
24456;DHT22;12628;50.860;5.714;2022-10-16T09:04:53;21.50;99.90
24456;DHT22;12628;50.860;5.714;2022-10-16T09:07:24;21.60;99.90
24456;DHT22;12628;50.860;5.714;2022-10-16T09:10:00;21.70;99.90
24456;DHT22;12628;50.860;5.714;2022-10-16T09:12:31;21.40;99.90
24456;DHT22;12628;50.860;5.714;2022-10-16T09:15:05;21.70;99.90
24456;DHT22;12628;50.860;5.714;2022-10-16T09:17:37;21.80;99.90
24456;DHT22;12628;50.860;5.714;2022-10-16T09:22:55;22.70;99.90
24456;DHT22;12628;50.860;5.714;2022-10-16T09:25:28;22.50;99.90
24456;DHT22;12628;50.860;5.714;2022-10-16T09:27:55;21.50;99.90
24456;DHT22;12628;50.860;5.714;2022-10-16T09:30:22;21.90;99.90
24456;DHT22;12628;50.860;5.714;2022-10-16T09:32:50;22.10;99.90
24456;DHT22;12628;50.860;5.714;2022-10-16T09:35:19;22.50;99.90
24456;DHT22;12628;50.860;5.714;2022-10-16T09:37:48;23.00;99.90
24456;DHT22;12628;50.860;5.714;2022-10-16T09:40:24;23.30;99.90
24456;DHT22;12628;50.860;5.714;2022-10-16T09:42:54;22.80;99.90
24456;DHT22;12628;50.860;5.714;2022-10-16T09:45:23;22.20;99.90
24456;DHT22;12628;50.860;5.714;2022-10-16T09:47:50;22.60;99.90
24456;DHT22;12628;50.860;5.714;2022-10-16T09:50:21;22.00;99.90
24456;DHT22;12628;50.860;5.714;2022-10-16T09:52:49;20.70;99.90
24456;DHT22;12628;50.860;5.714;2022-10-16T09:55:16;19.60;99.90
24456;DHT22;12628;50.860;5.714;2022-10-16T09:57:50;19.20;99.90
24456;DHT22;12628;50.860;5.714;2022-10-16T10:00:19;19.40;99.90
24456;DHT22;12628;50.860;5.714;2022-10-16T10:02:46;19.00;99.90
24456;DHT22;12628;50.860;5.714;2022-10-16T10:05:17;19.10;99.90
24456;DHT22;12628;50.860;5.714;2022-10-16T10:07:44;18.90;99.90
24456;DHT22;12628;50.860;5.714;2022-10-16T10:10:18;19.70;99.90
24456;DHT22;12628;50.860;5.714;2022-10-16T10:12:46;21.70;99.90
24456;DHT22;12628;50.860;5.714;2022-10-16T10:15:13;22.30;99.90
24456;DHT22;12628;50.860;5.714;2022-10-16T10:17:47;23.00;99.90
24456;DHT22;12628;50.860;5.714;2022-10-16T10:20:21;23.10;99.90
24456;DHT22;12628;50.860;5.714;2022-10-16T10:22:48;23.40;99.90
24456;DHT22;12628;50.860;5.714;2022-10-16T10:25:19;22.60;99.90
24456;DHT22;12628;50.860;5.714;2022-10-16T10:27:58;22.70;99.90
24456;DHT22;12628;50.860;5.714;2022-10-16T10:30:29;22.60;99.90
24456;DHT22;12628;50.860;5.714;2022-10-16T10:33:06;23.20;99.90
24456;DHT22;12628;50.860;5.714;2022-10-16T10:35:38;23.60;99.90
24456;DHT22;12628;50.860;5.714;2022-10-16T10:38:11;23.90;99.90
24456;DHT22;12628;50.860;5.714;2022-10-16T10:40:45;24.30;99.90
24456;DHT22;12628;50.860;5.714;2022-10-16T10:43:18;25.00;99.90
24456;DHT22;12628;50.860;5.714;2022-10-16T10:45:47;24.00;99.90
24456;DHT22;12628;50.860;5.714;2022-10-16T10:48:21;24.10;99.90
24456;DHT22;12628;50.860;5.714;2022-10-16T10:50:52;23.90;99.90
24456;DHT22;12628;50.860;5.714;2022-10-16T10:53:25;23.40;99.90
24456;DHT22;12628;50.860;5.714;2022-10-16T10:55:57;23.60;99.90
24456;DHT22;12628;50.860;5.714;2022-10-16T10:58:29;23.90;99.90
24456;DHT22;12628;50.860;5.714;2022-10-16T11:01:01;24.30;99.90
24456;DHT22;12628;50.860;5.714;2022-10-16T11:06:19;22.40;99.90
24456;DHT22;12628;50.860;5.714;2022-10-16T11:08:50;22.70;99.90
24456;DHT22;12628;50.860;5.714;2022-10-16T11:11:19;22.70;99.90
24456;DHT22;12628;50.860;5.714;2022-10-16T11:13:49;23.20;99.90
24456;DHT22;12628;50.860;5.714;2022-10-16T11:16:21;24.00;99.90
24456;DHT22;12628;50.860;5.714;2022-10-16T11:18:52;23.80;99.90
24456;DHT22;12628;50.860;5.714;2022-10-16T11:21:23;24.60;99.90
24456;DHT22;12628;50.860;5.714;2022-10-16T11:23:52;24.80;99.90
24456;DHT22;12628;50.860;5.714;2022-10-16T11:26:21;23.60;99.90
24456;DHT22;12628;50.860;5.714;2022-10-16T11:28:51;24.10;99.90
24456;DHT22;12628;50.860;5.714;2022-10-16T11:31:22;24.30;99.90
24456;DHT22;12628;50.860;5.714;2022-10-16T11:33:52;24.90;99.90
24456;DHT22;12628;50.860;5.714;2022-10-16T11:36:23;25.80;99.90
24456;DHT22;12628;50.860;5.714;2022-10-16T11:38:54;25.10;99.90
24456;DHT22;12628;50.860;5.714;2022-10-16T11:41:24;25.50;99.90
24456;DHT22;12628;50.860;5.714;2022-10-16T11:43:56;25.60;99.90
24456;DHT22;12628;50.860;5.714;2022-10-16T11:46:25;26.10;99.90
24456;DHT22;12628;50.860;5.714;2022-10-16T11:48:54;26.70;99.90
24456;DHT22;12628;50.860;5.714;2022-10-16T11:51:27;25.60;99.90
24456;DHT22;12628;50.860;5.714;2022-10-16T11:53:57;25.20;99.90
24456;DHT22;12628;50.860;5.714;2022-10-16T11:56:26;24.20;99.90
24456;DHT22;12628;50.860;5.714;2022-10-16T11:58:55;23.60;99.90
24456;DHT22;12628;50.860;5.714;2022-10-16T12:01:26;23.30;99.90
24456;DHT22;12628;50.860;5.714;2022-10-16T12:03:59;22.70;99.90
24456;DHT22;12628;50.860;5.714;2022-10-16T12:06:33;23.50;99.90
24456;DHT22;12628;50.860;5.714;2022-10-16T12:09:00;23.10;99.90
24456;DHT22;12628;50.860;5.714;2022-10-16T12:11:32;21.70;99.90
24456;DHT22;12628;50.860;5.714;2022-10-16T12:14:06;21.20;99.90
24456;DHT22;12628;50.860;5.714;2022-10-16T12:16:34;20.90;99.90
24456;DHT22;12628;50.860;5.714;2022-10-16T12:19:10;20.60;99.90
24456;DHT22;12628;50.860;5.714;2022-10-16T12:21:38;20.70;99.90
24456;DHT22;12628;50.860;5.714;2022-10-16T12:24:06;21.50;99.90
24456;DHT22;12628;50.860;5.714;2022-10-16T12:26:33;21.60;99.90
24456;DHT22;12628;50.860;5.714;2022-10-16T12:29:13;22.90;99.90
24456;DHT22;12628;50.860;5.714;2022-10-16T12:31:43;22.60;99.90
24456;DHT22;12628;50.860;5.714;2022-10-16T12:34:14;22.50;99.90
24456;DHT22;12628;50.860;5.714;2022-10-16T12:36:46;23.20;99.90
24456;DHT22;12628;50.860;5.714;2022-10-16T12:39:16;23.70;99.90
24456;DHT22;12628;50.860;5.714;2022-10-16T12:41:47;23.90;99.90
24456;DHT22;12628;50.860;5.714;2022-10-16T12:44:21;24.60;99.90
24456;DHT22;12628;50.860;5.714;2022-10-16T12:46:49;24.00;99.90
24456;DHT22;12628;50.860;5.714;2022-10-16T12:49:29;22.60;99.90
24456;DHT22;12628;50.860;5.714;2022-10-16T12:51:58;21.90;99.90
24456;DHT22;12628;50.860;5.714;2022-10-16T12:54:27;21.50;99.90
24456;DHT22;12628;50.860;5.714;2022-10-16T12:57:04;21.30;99.90
24456;DHT22;12628;50.860;5.714;2022-10-16T12:59:37;20.90;99.90
24456;DHT22;12628;50.860;5.714;2022-10-16T13:02:14;20.60;99.90
24456;DHT22;12628;50.860;5.714;2022-10-16T13:04:51;20.70;99.90
24456;DHT22;12628;50.860;5.714;2022-10-16T13:07:33;20.90;99.90
24456;DHT22;12628;50.860;5.714;2022-10-16T13:10:06;21.20;99.90
24456;DHT22;12628;50.860;5.714;2022-10-16T13:12:42;20.60;99.90
24456;DHT22;12628;50.860;5.714;2022-10-16T13:15:21;20.40;99.90
24456;DHT22;12628;50.860;5.714;2022-10-16T13:17:53;20.30;99.90
24456;DHT22;12628;50.860;5.714;2022-10-16T13:20:26;20.40;99.90
24456;DHT22;12628;50.860;5.714;2022-10-16T13:22:59;20.40;99.90
24456;DHT22;12628;50.860;5.714;2022-10-16T13:25:32;20.30;99.90
24456;DHT22;12628;50.860;5.714;2022-10-16T13:28:02;20.50;99.90
24456;DHT22;12628;50.860;5.714;2022-10-16T13:30:30;20.90;99.90
24456;DHT22;12628;50.860;5.714;2022-10-16T13:32:59;21.00;99.90
24456;DHT22;12628;50.860;5.714;2022-10-16T13:35:27;20.80;99.90
24456;DHT22;12628;50.860;5.714;2022-10-16T13:38:13;20.80;99.90
24456;DHT22;12628;50.860;5.714;2022-10-16T13:40:50;21.10;99.90
24456;DHT22;12628;50.860;5.714;2022-10-16T13:43:18;21.20;99.90
24456;DHT22;12628;50.860;5.714;2022-10-16T13:45:53;21.20;99.90
24456;DHT22;12628;50.860;5.714;2022-10-16T13:48:20;20.90;99.90
24456;DHT22;12628;50.860;5.714;2022-10-16T13:50:57;20.60;99.90
24456;DHT22;12628;50.860;5.714;2022-10-16T13:53:26;20.40;99.90
24456;DHT22;12628;50.860;5.714;2022-10-16T13:55:53;20.40;99.90
24456;DHT22;12628;50.860;5.714;2022-10-16T13:58:20;20.30;99.90
24456;DHT22;12628;50.860;5.714;2022-10-16T14:00:53;20.10;99.90
24456;DHT22;12628;50.860;5.714;2022-10-16T14:03:20;20.00;99.90
24456;DHT22;12628;50.860;5.714;2022-10-16T14:05:48;20.10;99.90
24456;DHT22;12628;50.860;5.714;2022-10-16T14:08:15;20.00;99.90
24456;DHT22;12628;50.860;5.714;2022-10-16T14:10:46;20.00;99.90
24456;DHT22;12628;50.860;5.714;2022-10-16T14:13:15;20.00;99.90
24456;DHT22;12628;50.860;5.714;2022-10-16T14:15:45;20.00;99.90
24456;DHT22;12628;50.860;5.714;2022-10-16T14:18:15;20.00;99.90
24456;DHT22;12628;50.860;5.714;2022-10-16T14:20:45;20.00;99.90
24456;DHT22;12628;50.860;5.714;2022-10-16T14:23:22;19.80;99.90
24456;DHT22;12628;50.860;5.714;2022-10-16T14:25:53;19.70;99.90
24456;DHT22;12628;50.860;5.714;2022-10-16T14:28:21;19.60;99.90
24456;DHT22;12628;50.860;5.714;2022-10-16T14:30:49;19.50;99.90
24456;DHT22;12628;50.860;5.714;2022-10-16T14:33:20;19.50;99.90
24456;DHT22;12628;50.860;5.714;2022-10-16T14:35:57;19.40;99.90
24456;DHT22;12628;50.860;5.714;2022-10-16T14:38:25;19.30;99.90
24456;DHT22;12628;50.860;5.714;2022-10-16T14:40:54;19.30;99.90
24456;DHT22;12628;50.860;5.714;2022-10-16T14:43:26;19.40;99.90
24456;DHT22;12628;50.860;5.714;2022-10-16T14:45:54;19.40;99.90
24456;DHT22;12628;50.860;5.714;2022-10-16T14:48:22;19.50;99.90
24456;DHT22;12628;50.860;5.714;2022-10-16T14:50:50;19.40;99.90
24456;DHT22;12628;50.860;5.714;2022-10-16T14:53:17;19.40;99.90
24456;DHT22;12628;50.860;5.714;2022-10-16T14:55:45;19.40;99.90
24456;DHT22;12628;50.860;5.714;2022-10-16T14:58:15;19.40;99.90
24456;DHT22;12628;50.860;5.714;2022-10-16T15:00:43;19.30;99.90
24456;DHT22;12628;50.860;5.714;2022-10-16T15:03:10;19.30;99.90
24456;DHT22;12628;50.860;5.714;2022-10-16T15:05:37;19.30;99.90
24456;DHT22;12628;50.860;5.714;2022-10-16T15:08:04;19.20;99.90
24456;DHT22;12628;50.860;5.714;2022-10-16T15:10:31;19.30;99.90
24456;DHT22;12628;50.860;5.714;2022-10-16T15:12:59;19.20;99.90
24456;DHT22;12628;50.860;5.714;2022-10-16T15:15:35;19.20;99.90
24456;DHT22;12628;50.860;5.714;2022-10-16T15:18:03;19.20;99.90
24456;DHT22;12628;50.860;5.714;2022-10-16T15:20:32;19.20;99.90
24456;DHT22;12628;50.860;5.714;2022-10-16T15:23:00;19.20;99.90
24456;DHT22;12628;50.860;5.714;2022-10-16T15:25:29;19.10;99.90
24456;DHT22;12628;50.860;5.714;2022-10-16T15:27:57;19.10;99.90
24456;DHT22;12628;50.860;5.714;2022-10-16T15:30:24;19.10;99.90
24456;DHT22;12628;50.860;5.714;2022-10-16T15:32:52;19.10;99.90
24456;DHT22;12628;50.860;5.714;2022-10-16T15:35:20;19.10;99.90
24456;DHT22;12628;50.860;5.714;2022-10-16T15:37:47;19.10;99.90
24456;DHT22;12628;50.860;5.714;2022-10-16T15:40:14;19.00;99.90
24456;DHT22;12628;50.860;5.714;2022-10-16T15:42:41;18.90;99.90
24456;DHT22;12628;50.860;5.714;2022-10-16T15:45:09;18.90;99.90
24456;DHT22;12628;50.860;5.714;2022-10-16T15:47:36;18.80;99.90